Time;durP1;ratioP1;P1;durP2;ratioP2;P2;SDS_P1;SDS_P2;PMS_P1;PMS_P2;Temp;Humidity;BMP_temperature;BMP_pressure;BME280_temperature;BME280_humidity;BME280_pressure;Samples;Min_cycle;Max_cycle;Signal;HPM_P1;HPM_P2
2023/03/31 00:00:20;;;;;;;;;9.00;2.00;;;;;13.60;69.84;100184.03;4996417;28;45265;-48
2023/03/31 00:02:45;;;;;;;;;8.67;4.33;;;;;13.61;71.23;100183.88;4996560;28;45341;-43
2023/03/31 00:05:10;;;;;;;;;2.33;1.00;;;;;13.59;72.02;100169.03;4996442;28;45432;-47
2023/03/31 00:07:39;;;;;;;;;6.67;2.67;;;;;13.60;70.41;100168.84;4978896;28;45747;-47
2023/03/31 00:10:06;;;;;;;;;2.67;2.67;;;;;13.60;70.74;100187.53;4996474;28;45448;-45
2023/03/31 00:12:32;;;;;;;;;4.00;2.00;;;;;13.55;72.16;100184.59;4997036;28;45369;-46
2023/03/31 00:14:57;;;;;;;;;5.00;1.33;;;;;13.56;71.86;100193.44;4999633;28;46085;-44
2023/03/31 00:17:22;;;;;;;;;2.33;2.33;;;;;13.51;71.48;100193.97;4999696;28;45341;-46
2023/03/31 00:19:48;;;;;;;;;7.00;4.00;;;;;13.48;71.41;100176.47;4999900;28;45318;-45
2023/03/31 00:22:17;;;;;;;;;9.67;1.67;;;;;13.33;73.70;100092.75;4999782;28;45281;-48
2023/03/31 00:24:43;;;;;;;;;7.33;3.00;;;;;13.28;74.65;100086.31;4999158;28;45925;-47
2023/03/31 00:27:10;;;;;;;;;5.67;2.67;;;;;13.28;73.16;100086.31;4999587;28;45346;-44
2023/03/31 00:29:40;;;;;;;;;4.33;3.00;;;;;13.22;73.21;100051.28;4999324;28;45363;-46
2023/03/31 00:32:05;;;;;;;;;3.67;2.00;;;;;13.21;73.09;100056.78;4999367;28;45469;-47
2023/03/31 00:34:31;;;;;;;;;3.00;1.67;;;;;13.16;72.81;100040.47;4998978;28;46317;-47
2023/03/31 00:37:01;;;;;;;;;3.33;2.00;;;;;13.08;73.23;100021.84;4999194;28;45365;-44
2023/03/31 00:39:30;;;;;;;;;3.67;3.33;;;;;13.17;73.50;100034.13;4999742;28;45315;-43
2023/03/31 00:42:03;;;;;;;;;6.67;2.67;;;;;13.14;72.54;100029.94;4999167;28;45586;-44
2023/03/31 00:44:32;;;;;;;;;3.67;1.67;;;;;13.12;72.99;100039.19;4999060;28;45897;-45
2023/03/31 00:47:03;;;;;;;;;1.00;1.00;;;;;13.15;73.01;100039.66;4981844;28;45371;-43
2023/03/31 00:49:45;;;;;;;;;3.00;1.00;;;;;13.19;73.03;100021.44;4999205;28;45266;-45
2023/03/31 00:52:16;;;;;;;;;5.33;1.00;;;;;13.20;72.45;100004.38;4999138;28;45226;-48
2023/03/31 00:54:46;;;;;;;;;2.33;2.33;;;;;13.08;72.30;99984.47;4998836;28;47177;-45
2023/03/31 00:57:13;;;;;;;;;6.33;2.33;;;;;13.17;71.78;100002.06;4998854;28;45410;-44
2023/03/31 00:59:45;;;;;;;;;3.00;1.33;;;;;13.16;72.34;99987.06;4999076;28;45391;-44
2023/03/31 01:02:13;;;;;;;;;2.67;2.00;;;;;13.18;71.70;99972.50;4999022;28;45603;-43
2023/03/31 01:04:45;;;;;;;;;4.67;3.00;;;;;13.21;71.52;99993.50;4998804;28;45250;-47
2023/03/31 01:07:21;;;;;;;;;3.00;2.00;;;;;13.28;71.35;99990.97;4998729;28;45434;-43
2023/03/31 01:09:49;;;;;;;;;2.67;2.00;;;;;13.25;71.49;99967.31;4998888;28;45371;-45
2023/03/31 01:12:17;;;;;;;;;1.33;1.00;;;;;13.30;71.33;99974.75;4998913;28;45230;-45
2023/03/31 01:14:42;;;;;;;;;8.67;1.67;;;;;13.28;71.46;99974.13;4998384;28;46470;-46
2023/03/31 01:17:10;;;;;;;;;2.67;2.00;;;;;13.29;70.89;99973.94;4998554;28;45536;-45
2023/03/31 01:20:05;;;;;;;;;2.00;2.00;;;;;13.29;71.23;99973.13;4998486;28;45325;-46
2023/03/31 01:22:59;;;;;;;;;2.00;2.00;;;;;13.27;70.68;99964.44;4997493;28;45458;-47
2023/03/31 01:25:52;;;;;;;;;4.00;2.00;;;;;13.25;70.61;99958.47;4998429;28;46056;-48
2023/03/31 01:28:44;;;;;;;;;3.00;1.00;;;;;13.21;70.88;99950.78;4998406;28;45376;-45
2023/03/31 01:31:28;;;;;;;;;5.00;1.67;;;;;13.22;71.02;99943.59;4998057;28;45243;-48
2023/03/31 01:33:56;;;;;;;;;4.00;1.00;;;;;13.25;70.96;99953.13;4998685;28;45232;-45
2023/03/31 01:36:45;;;;;;;;;7.00;1.33;;;;;13.20;71.53;99935.78;4998392;28;45349;-45
2023/03/31 01:39:48;;;;;;;;;1.00;1.00;;;;;13.14;71.32;99939.16;4998296;28;45207;-47
2023/03/31 01:42:17;;;;;;;;;4.00;1.00;;;;;13.15;72.66;99940.00;4997809;28;45420;-44
2023/03/31 01:44:54;;;;;;;;;7.33;2.00;;;;;13.18;72.62;99931.63;4998544;28;45296;-45
2023/03/31 01:47:31;;;;;;;;;4.00;2.00;;;;;13.14;72.46;99912.44;4997973;28;47211;-46
2023/03/31 01:50:17;;;;;;;;;1.00;1.00;;;;;13.24;72.72;99917.56;4998047;28;45364;-48
2023/03/31 01:52:55;;;;;;;;;2.33;2.00;;;;;13.23;71.90;99916.75;4980614;28;45303;-46
2023/03/31 01:55:34;;;;;;;;;2.00;2.00;;;;;13.21;72.37;99902.72;4998587;28;45294;-50
2023/03/31 01:58:08;;;;;;;;;3.67;2.00;;;;;13.25;72.49;99897.84;4997994;28;45503;-46
2023/03/31 02:00:40;;;;;;;;;3.67;2.00;;;;;13.05;71.74;99876.19;4998091;28;45233;-48
2023/03/31 02:03:21;;;;;;;;;1.33;1.33;;;;;13.07;72.79;99858.16;4998060;28;45397;-46
2023/03/31 02:05:53;;;;;;;;;2.00;1.00;;;;;13.12;72.71;99884.28;4998043;28;45421;-48
2023/03/31 02:08:27;;;;;;;;;2.00;2.00;;;;;13.13;72.38;99886.78;4997881;28;45344;-46
2023/03/31 02:10:55;;;;;;;;;1.00;1.00;;;;;13.14;72.14;99883.09;4997644;28;45217;-46
2023/03/31 02:13:22;;;;;;;;;2.67;1.00;;;;;13.17;73.14;99865.88;4998020;28;45422;-48
2023/03/31 02:15:56;;;;;;;;;1.00;1.00;;;;;13.22;71.63;99880.34;4997750;28;45483;-48
2023/03/31 02:18:26;;;;;;;;;2.00;2.00;;;;;13.16;72.29;99862.38;4997634;28;47118;-49
2023/03/31 02:20:56;;;;;;;;;1.00;1.00;;;;;13.22;72.73;99866.13;4997741;28;45382;-47
2023/03/31 02:23:28;;;;;;;;;1.00;1.00;;;;;13.19;72.03;99851.34;4997770;28;45370;-47
2023/03/31 02:26:01;;;;;;;;;2.00;2.00;;;;;13.17;72.19;99858.69;4997919;28;45495;-45
2023/03/31 02:28:27;;;;;;;;;4.00;1.00;;;;;13.18;72.64;99844.31;4997639;28;46973;-47
2023/03/31 02:31:16;;;;;;;;;4.67;2.00;;;;;13.23;72.39;99841.97;4997330;28;45239;-46
2023/03/31 02:33:42;;;;;;;;;2.00;2.00;;;;;13.20;72.17;99823.59;4997530;28;46368;-51
2023/03/31 02:36:08;;;;;;;;;6.00;2.00;;;;;13.27;71.93;99838.91;4996997;28;45459;-44
2023/03/31 02:38:38;;;;;;;;;3.67;1.00;;;;;13.28;71.97;99827.22;4997332;28;46257;-47
2023/03/31 02:41:04;;;;;;;;;3.33;1.00;;;;;13.27;72.07;99814.88;4997158;28;45287;-45
2023/03/31 02:43:30;;;;;;;;;2.00;1.00;;;;;13.29;71.81;99813.69;4997786;28;45409;-46
2023/03/31 02:45:55;;;;;;;;;2.33;1.00;;;;;13.33;71.91;99803.44;4997560;28;45314;-47
2023/03/31 02:48:25;;;;;;;;;4.33;1.00;;;;;13.35;71.57;99798.72;4997227;28;45289;-49
2023/03/31 02:51:18;;;;;;;;;3.00;1.67;;;;;13.35;71.91;99786.19;4997275;28;45295;-47
2023/03/31 02:54:15;;;;;;;;;2.00;2.00;;;;;13.35;71.82;99769.34;4997442;28;45269;-48
2023/03/31 02:56:53;;;;;;;;;1.00;1.00;;;;;13.37;71.55;99767.34;4936801;28;45365;-46
2023/03/31 02:59:56;;;;;;;;;2.67;2.00;;;;;13.36;71.64;99750.50;4936552;28;48237;-45
2023/03/31 03:02:30;;;;;;;;;2.00;2.00;;;;;13.35;71.57;99769.34;4936199;28;45558;-47
2023/03/31 03:05:05;;;;;;;;;3.00;3.00;;;;;13.33;71.49;99766.06;4936489;28;45424;-50
2023/03/31 03:07:50;;;;;;;;;3.67;1.67;;;;;13.29;71.60;99754.09;4936533;28;45578;-45
2023/03/31 03:10:47;;;;;;;;;3.33;2.00;;;;;13.27;71.89;99764.13;4936295;28;45406;-44
2023/03/31 03:13:55;;;;;;;;;2.33;1.67;;;;;13.25;71.96;99750.16;4935415;28;45341;-45
2023/03/31 03:16:29;;;;;;;;;8.67;3.00;;;;;13.20;72.30;99746.16;4936555;28;45549;-45
2023/03/31 03:18:56;;;;;;;;;4.67;2.00;;;;;13.16;71.72;99731.53;4936579;28;45423;-48
2023/03/31 03:21:22;;;;;;;;;3.00;3.00;;;;;13.19;71.67;99749.03;4936176;28;46237;-45
2023/03/31 03:23:47;;;;;;;;;4.00;2.00;;;;;13.15;72.30;99745.91;4936128;28;45546;-45
2023/03/31 03:26:12;;;;;;;;;9.67;6.00;;;;;13.16;72.23;99749.41;4936428;28;45556;-46
2023/03/31 03:28:37;;;;;;;;;3.00;1.33;;;;;13.14;72.40;99735.38;4936524;28;45444;-47
2023/03/31 03:31:03;;;;;;;;;6.67;2.00;;;;;13.11;72.76;99747.28;4936266;28;46427;-50
2023/03/31 03:33:28;;;;;;;;;4.00;2.00;;;;;13.08;72.30;99736.97;4964182;28;45442;-46
2023/03/31 03:35:53;;;;;;;;;3.33;3.00;;;;;13.02;72.46;99716.38;4996745;28;45333;-46
2023/03/31 03:38:19;;;;;;;;;8.00;3.00;;;;;13.11;73.02;99735.78;4997139;28;45458;-43
2023/03/31 03:40:45;;;;;;;;;6.33;2.33;;;;;13.07;72.59;99727.31;4996399;28;46959;-47
2023/03/31 03:43:10;;;;;;;;;2.33;1.67;;;;;13.08;72.42;99726.28;4996962;28;45243;-47
2023/03/31 03:45:36;;;;;;;;;4.00;2.00;;;;;13.07;72.76;99707.81;4996543;28;45418;-46
2023/03/31 03:48:01;;;;;;;;;3.00;2.00;;;;;13.06;72.76;99712.31;4999864;28;45570;-50
2023/03/31 03:50:26;;;;;;;;;3.33;3.00;;;;;13.05;72.60;99718.66;5000012;28;46379;-52
2023/03/31 03:52:52;;;;;;;;;5.00;3.33;;;;;13.06;72.99;99704.31;4999952;28;45211;-51
2023/03/31 03:55:17;;;;;;;;;3.00;3.00;;;;;13.07;72.98;99705.97;4982432;28;45302;-51
2023/03/31 03:57:42;;;;;;;;;7.00;3.00;;;;;13.09;72.64;99701.25;5000232;28;45284;-53
2023/03/31 04:00:11;;;;;;;;;6.67;4.67;;;;;13.14;73.02;99708.69;4999746;28;48631;-48
2023/03/31 04:02:37;;;;;;;;;4.00;1.67;;;;;13.18;72.62;99691.28;4999277;28;45519;-49
2023/03/31 04:05:03;;;;;;;;;6.00;3.67;;;;;13.20;72.59;99683.91;4999650;28;45370;-53
2023/03/31 04:07:29;;;;;;;;;8.33;3.67;;;;;13.25;72.26;99683.38;5000029;28;45464;-49
2023/03/31 04:09:54;;;;;;;;;3.67;3.67;;;;;13.21;72.13;99662.34;4999299;28;51346;-51
2023/03/31 04:12:19;;;;;;;;;5.33;4.33;;;;;13.27;72.12;99676.00;4999452;28;45425;-52
2023/03/31 04:14:45;;;;;;;;;4.00;3.00;;;;;13.25;72.01;99662.84;4999750;28;45345;-52
2023/03/31 04:17:14;;;;;;;;;6.00;4.00;;;;;13.27;71.75;99660.78;4999700;28;45382;-47
2023/03/31 04:19:41;;;;;;;;;3.67;3.00;;;;;13.26;71.34;99660.97;4999384;28;45289;-51
2023/03/31 04:22:10;;;;;;;;;8.67;3.00;;;;;13.27;71.89;99666.13;4999327;28;45387;-50
2023/03/31 04:24:37;;;;;;;;;2.33;2.33;;;;;13.27;71.59;99671.47;4999602;28;45385;-49
2023/03/31 04:27:06;;;;;;;;;8.00;4.00;;;;;13.28;71.37;99672.31;4999782;28;45357;-49
2023/03/31 04:29:32;;;;;;;;;4.67;3.00;;;;;13.31;71.37;99677.25;4999284;28;45370;-45
2023/03/31 04:31:58;;;;;;;;;4.67;2.33;;;;;13.28;71.18;99677.66;4999261;28;45448;-44
2023/03/31 04:34:33;;;;;;;;;4.00;2.67;;;;;13.23;70.57;99652.34;4999341;28;45435;-43
2023/03/31 04:37:01;;;;;;;;;3.67;3.67;;;;;13.37;70.42;99660.50;4999502;28;45433;-43
2023/03/31 04:39:29;;;;;;;;;10.00;4.00;;;;;13.36;70.13;99670.34;4999166;28;45571;-46
2023/03/31 04:41:56;;;;;;;;;7.67;4.00;;;;;13.27;69.85;99658.13;4998875;28;45322;-46
2023/03/31 04:44:21;;;;;;;;;6.00;2.00;;;;;13.36;70.07;99658.84;4999278;28;45444;-45
2023/03/31 04:46:47;;;;;;;;;10.00;5.00;;;;;13.34;70.13;99648.34;4999552;28;45222;-46
2023/03/31 04:49:12;;;;;;;;;4.33;3.00;;;;;13.36;69.81;99656.16;4998782;28;50690;-44
2023/03/31 04:51:37;;;;;;;;;11.33;3.33;;;;;13.35;69.46;99667.84;4998914;28;45307;-48
2023/03/31 04:54:03;;;;;;;;;4.33;2.00;;;;;13.37;69.65;99668.50;4999279;28;45306;-45
2023/03/31 04:56:28;;;;;;;;;6.00;3.00;;;;;13.39;69.30;99679.81;4999230;28;45364;-45
2023/03/31 04:58:53;;;;;;;;;2.67;1.33;;;;;13.40;69.58;99668.09;4998610;28;45318;-47
2023/03/31 05:01:19;;;;;;;;;5.00;5.00;;;;;13.40;69.18;99660.94;4998879;28;47208;-44
2023/03/31 05:03:46;;;;;;;;;7.33;4.00;;;;;13.41;68.95;99659.09;4999208;28;45389;-45
2023/03/31 05:06:13;;;;;;;;;6.67;4.00;;;;;13.42;68.92;99656.22;4999143;28;45426;-44
2023/03/31 05:08:38;;;;;;;;;6.67;4.67;;;;;13.42;68.42;99655.38;4998671;28;45235;-45
2023/03/31 05:11:05;;;;;;;;;7.67;3.00;;;;;13.42;68.48;99656.22;4998602;28;51069;-46
2023/03/31 05:13:31;;;;;;;;;3.33;3.00;;;;;13.42;67.85;99658.06;4998893;28;45240;-45
2023/03/31 05:15:56;;;;;;;;;9.33;3.67;;;;;13.42;67.08;99666.91;4998869;28;45369;-48
2023/03/31 05:18:21;;;;;;;;;6.00;3.67;;;;;13.45;67.13;99652.34;4998668;28;46030;-46
2023/03/31 05:20:47;;;;;;;;;12.33;3.67;;;;;13.36;67.27;99643.63;4998367;28;45445;-45
2023/03/31 05:23:13;;;;;;;;;7.33;3.33;;;;;13.41;66.64;99656.41;4998630;28;45402;-46
2023/03/31 05:25:38;;;;;;;;;9.33;3.33;;;;;13.34;66.57;99651.00;4999093;28;45365;-45
2023/03/31 05:28:04;;;;;;;;;10.33;3.00;;;;;13.33;66.75;99638.66;4998330;28;45501;-44
2023/03/31 05:30:30;;;;;;;;;9.33;3.67;;;;;13.39;66.96;99653.91;4998496;28;45342;-48
2023/03/31 05:32:55;;;;;;;;;6.00;3.67;;;;;13.36;66.97;99635.63;4998352;28;45507;-44
2023/03/31 05:35:21;;;;;;;;;9.33;3.67;;;;;13.42;67.06;99632.16;4998624;28;45365;-46
2023/03/31 05:37:47;;;;;;;;;4.67;2.67;;;;;13.37;66.04;99628.44;4998353;28;45345;-47
2023/03/31 05:40:12;;;;;;;;;5.33;3.00;;;;;13.43;66.51;99646.34;4998200;28;45498;-45
2023/03/31 05:42:40;;;;;;;;;5.00;3.00;;;;;13.41;66.24;99629.69;4998247;28;45336;-50
2023/03/31 05:45:06;;;;;;;;;9.00;4.33;;;;;13.41;65.66;99617.16;4998505;28;45468;-46
2023/03/31 05:47:31;;;;;;;;;4.00;2.00;;;;;13.48;65.58;99643.94;4998254;28;46160;-49
2023/03/31 05:49:57;;;;;;;;;8.00;4.00;;;;;13.44;65.57;99626.63;4997867;28;45412;-49
2023/03/31 05:52:22;;;;;;;;;9.00;3.00;;;;;13.44;65.35;99631.97;4998016;28;45341;-43
2023/03/31 05:54:48;;;;;;;;;13.00;3.00;;;;;13.44;65.70;99618.59;4998464;28;45408;-47
2023/03/31 05:57:13;;;;;;;;;6.00;3.67;;;;;13.40;65.45;99634.22;4997975;28;46959;-48
2023/03/31 05:59:41;;;;;;;;;7.33;3.33;;;;;13.25;65.38;99614.75;4998201;28;45338;-50
2023/03/31 06:02:06;;;;;;;;;8.00;2.33;;;;;13.35;65.71;99627.78;4998055;28;45471;-50
2023/03/31 06:04:31;;;;;;;;;10.33;7.00;;;;;13.36;65.80;99637.47;4997949;28;45560;-46
2023/03/31 06:06:57;;;;;;;;;6.00;4.67;;;;;13.30;65.61;99632.88;4997790;28;46909;-45
2023/03/31 06:09:23;;;;;;;;;11.00;7.00;;;;;13.22;65.77;99626.63;4997486;28;45584;-46
2023/03/31 06:11:49;;;;;;;;;6.00;2.00;;;;;13.36;65.99;99640.16;4979597;28;45447;-47
2023/03/31 06:14:14;;;;;;;;;10.33;3.33;;;;;13.35;65.81;99633.13;4997883;28;45587;-47
2023/03/31 06:16:40;;;;;;;;;3.00;3.00;;;;;13.37;65.70;99633.78;4997593;28;46247;-49
2023/03/31 06:19:05;;;;;;;;;8.00;3.00;;;;;13.40;65.29;99638.72;4997893;28;45381;-46
2023/03/31 06:21:31;;;;;;;;;7.33;3.00;;;;;13.45;65.11;99626.44;4980129;28;45267;-47
2023/03/31 06:23:57;;;;;;;;;8.00;3.33;;;;;13.47;65.29;99627.06;4998032;28;45255;-43
2023/03/31 06:26:22;;;;;;;;;4.33;2.00;;;;;13.42;65.02;99607.31;4980095;28;46125;-44
2023/03/31 06:28:48;;;;;;;;;10.50;4.00;;;;;13.51;64.48;99643.56;4997393;28;45306;-47
2023/03/31 06:31:16;;;;;;;;;10.67;4.33;;;;;13.52;64.11;99631.84;4997699;28;45369;-46
2023/03/31 06:33:42;;;;;;;;;4.33;2.67;;;;;13.52;64.26;99642.53;4997784;28;45324;-49
2023/03/31 06:36:09;;;;;;;;;6.67;2.00;;;;;13.55;64.34;99612.75;4997204;28;47425;-45
2023/03/31 06:38:37;;;;;;;;;11.33;6.00;;;;;13.57;64.13;99639.28;4997418;28;45344;-44
2023/03/31 06:41:03;;;;;;;;;9.67;3.00;;;;;13.61;63.86;99629.84;4997283;28;45393;-48
2023/03/31 06:43:29;;;;;;;;;9.00;3.67;;;;;13.68;63.64;99628.06;4997604;28;45368;-50
2023/03/31 06:45:55;;;;;;;;;10.67;2.00;;;;;13.56;63.97;99617.06;4997135;28;45405;-46
2023/03/31 06:48:23;;;;;;;;;4.00;3.67;;;;;13.74;63.15;99624.63;4997133;28;45334;-51
2023/03/31 06:50:49;;;;;;;;;12.33;4.67;;;;;13.86;63.60;99639.13;4997332;28;45302;-47
2023/03/31 06:53:14;;;;;;;;;2.00;1.33;;;;;13.89;63.39;99638.69;4997556;28;45151;-49
2023/03/31 06:55:40;;;;;;;;;9.00;3.00;;;;;13.91;62.66;99650.03;4997296;28;45409;-48
2023/03/31 06:58:05;;;;;;;;;7.33;3.67;;;;;13.95;62.80;99645.13;4997200;28;45374;-48
2023/03/31 07:00:32;;;;;;;;;14.33;7.00;;;;;14.01;63.01;99630.16;4997389;28;45382;-47
2023/03/31 07:02:58;;;;;;;;;12.67;4.33;;;;;14.03;62.87;99639.63;4997685;28;45338;-49
2023/03/31 07:05:26;;;;;;;;;7.00;3.00;;;;;14.07;63.03;99629.34;4996603;28;46332;-48
2023/03/31 07:07:52;;;;;;;;;4.00;2.33;;;;;14.11;62.59;99620.72;4979823;28;45386;-48
2023/03/31 07:10:17;;;;;;;;;4.00;2.00;;;;;14.18;61.75;99621.59;4984829;28;45834;-51
2023/03/31 07:12:43;;;;;;;;;4.67;2.00;;;;;14.18;62.15;99636.84;4991446;28;45551;-49
2023/03/31 07:15:09;;;;;;;;;11.33;4.00;;;;;14.18;61.55;99621.59;4991630;28;46971;-50
2023/03/31 07:17:36;;;;;;;;;3.00;3.00;;;;;14.18;61.03;99616.25;4991685;28;45513;-49
2023/03/31 07:20:03;;;;;;;;;4.00;3.00;;;;;14.16;61.25;99618.31;4974292;28;45417;-48
2023/03/31 07:22:28;;;;;;;;;4.67;2.67;;;;;14.15;61.15;99615.81;4996658;28;45481;-50
2023/03/31 07:24:54;;;;;;;;;5.00;2.33;;;;;14.16;61.14;99617.50;4998481;28;45585;-48
2023/03/31 07:27:19;;;;;;;;;5.00;3.00;;;;;14.22;61.28;99624.72;4980563;28;45786;-46
2023/03/31 07:29:44;;;;;;;;;2.67;1.00;;;;;14.10;61.16;99613.75;4999009;28;45404;-49
2023/03/31 07:32:10;;;;;;;;;4.00;2.33;;;;;14.27;61.05;99635.66;4998240;28;45391;-45
2023/03/31 07:34:35;;;;;;;;;3.00;2.33;;;;;14.33;60.79;99639.41;4998615;28;45622;-50
2023/03/31 07:37:01;;;;;;;;;7.00;3.00;;;;;14.45;60.77;99643.13;4997992;28;45410;-51
2023/03/31 07:39:26;;;;;;;;;4.67;2.00;;;;;14.54;60.32;99638.47;4998440;28;46341;-50
2023/03/31 07:41:51;;;;;;;;;5.33;2.33;;;;;14.60;59.77;99617.09;4998235;28;45320;-48
2023/03/31 07:44:17;;;;;;;;;1.00;1.00;;;;;14.89;59.69;99636.56;4980653;28;46187;-47
2023/03/31 07:46:43;;;;;;;;;5.00;2.00;;;;;15.02;58.98;99633.91;4998032;28;45659;-53
2023/03/31 07:49:09;;;;;;;;;4.33;1.00;;;;;15.13;58.48;99627.16;4998518;28;45338;-49
2023/03/31 07:51:34;;;;;;;;;3.67;1.33;;;;;15.14;58.55;99643.00;4997976;28;45472;-48
2023/03/31 07:54:00;;;;;;;;;7.00;2.00;;;;;15.11;58.93;99651.44;4997971;28;45435;-49
2023/03/31 07:56:25;;;;;;;;;3.00;3.00;;;;;15.11;58.74;99642.56;4998311;28;46127;-49
2023/03/31 07:58:51;;;;;;;;;4.00;2.67;;;;;15.06;59.20;99634.34;4998122;28;45511;-51
2023/03/31 08:01:20;;;;;;;;;6.33;3.67;;;;;15.02;59.05;99644.63;4998322;28;45500;-50
2023/03/31 08:03:47;;;;;;;;;8.67;3.00;;;;;14.94;59.14;99634.09;4997830;28;46086;-48
2023/03/31 08:06:24;;;;;;;;;3.33;1.33;;;;;14.91;59.41;99624.59;4997643;28;45362;-45
2023/03/31 08:08:49;;;;;;;;;4.67;0.33;;;;;14.95;59.37;99622.34;4997453;28;45573;-44
2023/03/31 08:11:16;;;;;;;;;6.67;4.00;;;;;15.00;59.27;99635.97;4996506;28;45371;-45
2023/03/31 08:13:41;;;;;;;;;2.67;2.00;;;;;15.07;59.09;99644.84;4997649;28;45514;-47
2023/03/31 08:16:07;;;;;;;;;10.00;2.00;;;;;15.03;59.54;99640.91;4998053;28;45847;-46
2023/03/31 08:18:32;;;;;;;;;8.33;1.00;;;;;14.95;59.76;99636.56;4997466;28;45485;-45
2023/03/31 08:20:58;;;;;;;;;2.67;2.67;;;;;14.86;60.30;99639.63;4998004;28;45476;-47
2023/03/31 08:23:23;;;;;;;;;9.00;3.00;;;;;14.81;60.42;99663.50;4996521;28;45484;-43
2023/03/31 08:25:48;;;;;;;;;5.00;2.00;;;;;14.75;60.56;99653.59;4997757;28;45403;-46
2023/03/31 08:28:13;;;;;;;;;8.00;2.00;;;;;14.76;60.49;99656.06;4997708;28;45496;-44
2023/03/31 08:30:40;;;;;;;;;7.00;2.00;;;;;14.86;60.29;99624.38;4998017;28;45510;-47
2023/03/31 08:33:06;;;;;;;;;2.33;1.00;;;;;15.18;59.76;99644.25;4996823;28;46058;-46
2023/03/31 08:35:32;;;;;;;;;4.00;2.00;;;;;15.33;59.15;99632.50;4997494;28;45478;-45
2023/03/31 08:37:58;;;;;;;;;6.33;1.67;;;;;15.38;59.05;99636.25;4997456;28;45441;-49
2023/03/31 08:40:26;;;;;;;;;5.00;2.00;;;;;15.46;58.75;99613.75;4997799;28;45489;-46
2023/03/31 08:42:56;;;;;;;;;4.00;2.00;;;;;15.58;58.65;99636.22;4997333;28;46372;-46
2023/03/31 08:45:32;;;;;;;;;4.33;2.00;;;;;15.76;58.09;99645.53;4997322;28;45496;-46
2023/03/31 08:48:24;;;;;;;;;2.67;2.00;;;;;15.86;57.86;99632.56;4996612;28;45576;-48
2023/03/31 08:51:05;;;;;;;;;2.00;2.00;;;;;15.81;57.21;99627.00;4936719;28;45534;-45
2023/03/31 08:53:38;;;;;;;;;4.33;2.67;;;;;15.79;57.14;99627.19;4920004;28;47601;-45
2023/03/31 08:56:12;;;;;;;;;5.67;2.00;;;;;15.96;56.63;99616.84;4937548;28;45512;-47
2023/03/31 08:58:46;;;;;;;;;4.00;2.00;;;;;16.35;55.40;99629.34;4938557;28;45406;-48
2023/03/31 09:01:20;;;;;;;;;4.67;2.00;;;;;16.53;55.67;99622.47;4938087;28;45323;-46
2023/03/31 09:03:54;;;;;;;;;0.00;0.00;;;;;16.53;54.07;99633.22;4937779;28;45515;-46
2023/03/31 09:06:43;;;;;;;;;3.33;1.67;;;;;16.35;54.78;99628.50;4938339;28;45604;-47
2023/03/31 09:09:33;;;;;;;;;5.33;1.00;;;;;16.27;55.32;99610.81;4938443;28;45474;-52
2023/03/31 09:12:08;;;;;;;;;5.67;1.00;;;;;16.15;54.12;99613.31;4938439;28;45381;-45
2023/03/31 09:14:50;;;;;;;;;2.67;2.00;;;;;16.17;54.37;99624.63;4938035;28;46213;-44
2023/03/31 09:17:22;;;;;;;;;4.00;2.00;;;;;16.03;55.23;99617.66;4938198;28;45330;-51
2023/03/31 09:20:12;;;;;;;;;9.00;1.33;;;;;15.83;55.08;99609.66;4938171;28;45450;-44
2023/03/31 09:22:43;;;;;;;;;3.67;2.00;;;;;15.89;55.17;99624.91;4938003;28;45454;-44
2023/03/31 09:25:20;;;;;;;;;5.00;3.00;;;;;15.92;54.78;99629.03;4937858;28;45485;-47
2023/03/31 09:27:49;;;;;;;;;4.33;3.00;;;;;15.80;55.37;99633.38;4966191;28;45402;-46
2023/03/31 09:30:23;;;;;;;;;4.67;3.33;;;;;15.64;55.88;99622.06;4998692;28;45329;-51
2023/03/31 09:32:52;;;;;;;;;2.67;1.67;;;;;15.55;56.16;99631.31;4998524;28;45365;-48
2023/03/31 09:35:24;;;;;;;;;3.67;3.00;;;;;15.44;56.27;99619.34;4998244;28;47108;-46
2023/03/31 09:37:51;;;;;;;;;3.00;1.00;;;;;15.45;56.51;99609.44;4998085;28;45353;-50
2023/03/31 09:40:22;;;;;;;;;4.67;3.33;;;;;15.57;56.08;99613.16;4998091;28;45538;-45
2023/03/31 09:42:59;;;;;;;;;1.67;1.00;;;;;15.73;55.99;99627.19;4998427;28;45302;-50
2023/03/31 09:45:25;;;;;;;;;5.00;2.00;;;;;15.89;55.20;99619.56;4997967;28;46549;-46
2023/03/31 09:47:55;;;;;;;;;4.33;2.33;;;;;16.59;53.50;99609.00;4998170;28;45376;-46
2023/03/31 09:50:22;;;;;;;;;10.00;2.33;;;;;16.94;51.85;99614.88;4998420;28;45287;-50
2023/03/31 09:52:55;;;;;;;;;0.00;0.00;;;;;17.29;51.38;99600.97;4998643;28;45425;-45
2023/03/31 09:55:30;;;;;;;;;2.67;1.00;;;;;17.18;51.30;99624.00;4998106;28;46019;-50
2023/03/31 09:57:59;;;;;;;;;5.00;2.00;;;;;17.56;51.15;99604.28;4980540;28;45412;-46
2023/03/31 10:00:26;;;;;;;;;3.00;1.33;;;;;17.87;48.91;99616.03;4998104;28;45305;-49
2023/03/31 10:02:54;;;;;;;;;4.33;2.00;;;;;18.02;49.04;99605.72;4998403;28;45405;-44
2023/03/31 10:05:53;;;;;;;;;6.25;1.75;;;;;18.30;48.58;99601.72;4997783;28;45501;-50
2023/03/31 10:08:23;;;;;;;;;4.00;2.25;;;;;19.15;47.33;99599.75;4997753;28;45322;-52
2023/03/31 10:11:07;;;;;;;;;3.25;1.00;;;;;19.15;47.20;99594.38;4998107;28;45429;-43
2023/03/31 10:14:03;;;;;;;;;2.00;1.25;;;;;18.34;47.85;99592.97;4998241;28;45248;-48
2023/03/31 10:16:43;;;;;;;;;2.75;1.00;;;;;18.05;48.27;99596.41;4997733;28;46285;-47
2023/03/31 10:19:21;;;;;;;;;2.00;2.00;;;;;17.71;49.68;99580.56;4997884;28;45422;-46
2023/03/31 10:21:55;;;;;;;;;3.50;2.00;;;;;17.90;49.04;99583.28;4997956;28;45298;-51
2023/03/31 10:24:20;;;;;;;;;5.50;3.00;;;;;17.60;49.23;99597.41;4998022;28;45397;-46
2023/03/31 10:26:53;;;;;;;;;4.00;4.00;;;;;17.21;49.92;99610.13;4997415;28;49701;-50
2023/03/31 10:29:25;;;;;;;;;2.50;2.00;;;;;17.01;50.49;99611.31;4997937;28;45355;-51
2023/03/31 10:31:50;;;;;;;;;1.75;1.50;;;;;17.23;50.60;99611.78;4997744;28;45522;-45
2023/03/31 10:34:18;;;;;;;;;3.00;1.00;;;;;18.06;48.81;99604.25;4997889;28;45351;-48
2023/03/31 10:36:50;;;;;;;;;2.00;0.75;;;;;18.37;47.59;99599.75;4997610;28;45480;-47
2023/03/31 10:39:17;;;;;;;;;1.75;1.75;;;;;18.62;46.52;99596.97;4997456;28;45324;-51
2023/03/31 10:41:50;;;;;;;;;2.00;2.00;;;;;18.08;46.69;99569.88;4997573;28;45460;-50
2023/03/31 10:44:30;;;;;;;;;4.50;1.00;;;;;18.23;47.67;99582.94;4997911;28;45231;-46
2023/03/31 10:47:04;;;;;;;;;6.00;2.00;;;;;18.15;46.31;99607.47;4997343;28;46274;-48
2023/03/31 10:49:29;;;;;;;;;1.75;1.75;;;;;18.10;46.86;99597.38;4997286;28;45339;-45
2023/03/31 10:51:57;;;;;;;;;5.00;1.25;;;;;18.11;46.98;99595.50;4997302;28;45277;-47
2023/03/31 10:54:24;;;;;;;;;4.25;1.50;;;;;17.87;47.78;99597.22;4997485;28;45460;-49
2023/03/31 10:57:02;;;;;;;;;3.25;1.00;;;;;17.57;48.60;99592.50;4978637;28;47184;-45
2023/03/31 10:59:57;;;;;;;;;4.00;2.00;;;;;17.64;48.20;99595.09;4997098;28;45582;-47
2023/03/31 11:02:38;;;;;;;;;2.00;2.00;;;;;17.53;48.44;99587.75;4997238;28;45465;-44
2023/03/31 11:05:12;;;;;;;;;4.50;2.00;;;;;18.25;48.35;99580.84;4997247;28;45530;-50
2023/03/31 11:07:43;;;;;;;;;3.25;0.75;;;;;18.19;46.60;99593.31;4996823;28;46397;-48
2023/03/31 11:10:28;;;;;;;;;1.75;1.75;;;;;17.90;47.67;99608.31;4997000;28;45436;-43
2023/03/31 11:13:32;;;;;;;;;1.75;1.25;;;;;18.14;47.46;99606.63;4996926;28;45393;-45
2023/03/31 11:16:24;;;;;;;;;1.00;1.00;;;;;18.09;47.11;99619.94;4997241;28;45425;-45
2023/03/31 11:19:14;;;;;;;;;2.50;0.50;;;;;17.74;47.90;99559.63;4996716;28;46354;-52
2023/03/31 11:22:20;;;;;;;;;1.00;0.00;;;;;17.36;48.27;99611.66;4996976;28;45393;-46
2023/03/31 11:25:11;;;;;;;;;3.00;0.75;;;;;17.57;48.66;99583.56;4996893;28;45306;-47
2023/03/31 11:28:12;;;;;;;;;5.50;1.50;;;;;18.29;46.97;99600.09;4973766;28;45629;-49
2023/03/31 11:30:53;;;;;;;;;4.25;2.00;;;;;18.99;45.99;99586.94;4996356;28;45315;-49
2023/03/31 11:33:18;;;;;;;;;7.00;0.00;;;;;19.40;45.54;99583.41;4996668;28;45315;-48
2023/03/31 11:36:03;;;;;;;;;3.75;1.50;;;;;19.25;45.39;99580.31;4996809;28;45274;-51
2023/03/31 11:38:43;;;;;;;;;2.25;1.00;;;;;18.68;45.98;99574.50;4996870;28;45457;-47
2023/03/31 11:41:32;;;;;;;;;6.25;2.00;;;;;18.18;46.15;99566.66;4996695;28;45397;-51
2023/03/31 11:44:02;;;;;;;;;3.00;0.00;;;;;17.85;46.34;99581.28;4935959;28;45408;-49
2023/03/31 11:46:46;;;;;;;;;1.75;0.50;;;;;17.75;46.92;99570.22;4936174;28;45306;-45
2023/03/31 11:49:20;;;;;;;;;0.75;0.75;;;;;17.84;47.60;99573.44;4936246;28;45277;-49